createdAt,value
2016-09-03T00:00:54.057Z,38.29
2016-09-03T00:01:54.070Z,38.39
2016-09-03T00:02:54.101Z,38.29
2016-09-03T00:03:54.124Z,38.39
2016-09-03T00:04:54.152Z,38.39
2016-09-03T00:05:54.178Z,38.1
2016-09-03T00:06:54.205Z,38.29
2016-09-03T00:07:54.230Z,38.58
2016-09-03T00:08:54.258Z,38.49
2016-09-03T00:09:54.283Z,38.49
2016-09-03T00:10:54.313Z,38.39
2016-09-03T00:11:54.341Z,38.46
2016-09-03T00:12:54.365Z,38.56
2016-09-03T00:13:54.388Z,38.56
2016-09-03T00:14:54.420Z,38.46
2016-09-03T00:15:54.439Z,38.28
2016-09-03T00:16:55.174Z,38.46
2016-09-03T00:17:54.500Z,38.56
2016-09-03T00:18:54.516Z,38.46
2016-09-03T00:19:54.543Z,38.49
2016-09-03T00:20:54.573Z,38.46
2016-09-03T00:21:54.598Z,38.56
2016-09-03T00:22:54.625Z,38.76
2016-09-03T00:23:54.646Z,38.76
2016-09-03T00:24:54.676Z,38.56
2016-09-03T00:25:54.704Z,38.56
2016-09-03T00:26:54.730Z,38.95
2016-09-03T00:27:54.754Z,38.66
2016-09-03T00:28:54.785Z,38.66
2016-09-03T00:29:54.802Z,38.76
2016-09-03T00:30:54.834Z,38.66
2016-09-03T00:31:54.856Z,38.66
2016-09-03T00:32:54.890Z,38.85
2016-09-03T00:33:54.908Z,38.85
2016-09-03T00:34:54.935Z,38.85
2016-09-03T00:35:54.959Z,38.85
2016-09-03T00:36:54.989Z,38.95
2016-09-03T00:37:55.014Z,39.04
2016-09-03T00:38:55.036Z,38.76
2016-09-03T00:39:55.065Z,38.85
2016-09-03T00:40:55.088Z,39.14
2016-09-03T00:41:55.115Z,39.14
2016-09-03T00:42:55.150Z,39.04
2016-09-03T00:43:55.166Z,39.04
2016-09-03T00:44:55.195Z,39.34
2016-09-03T00:45:55.220Z,39.14
2016-09-03T00:46:55.249Z,39.43
2016-09-03T00:47:55.272Z,39.53
2016-09-03T00:48:55.300Z,39.53
2016-09-03T00:49:55.323Z,39.72
2016-09-03T00:50:55.353Z,39.62
2016-09-03T00:51:55.489Z,39.62
2016-09-03T00:52:55.488Z,39.7
2016-09-03T00:53:55.515Z,39.82
2016-09-03T00:54:55.561Z,39.79
2016-09-03T00:55:55.700Z,39.72
2016-09-03T00:56:55.708Z,39.7
2016-09-03T00:57:55.721Z,39.89
2016-09-03T00:58:55.731Z,39.79
2016-09-03T00:59:55.728Z,39.99
2016-09-03T01:00:55.739Z,40.09
2016-09-03T01:01:55.789Z,39.89
2016-09-03T01:02:55.756Z,39.89
2016-09-03T01:03:55.797Z,39.82
2016-09-03T01:04:55.803Z,39.79
2016-09-03T01:05:55.816Z,39.61
2016-09-03T01:06:55.860Z,39.7
2016-09-03T01:07:55.860Z,39.7
2016-09-03T01:08:55.891Z,39.7
2016-09-03T01:09:55.964Z,39.89
2016-09-03T01:10:55.916Z,39.89
2016-09-03T01:11:55.917Z,40.09
2016-09-03T01:12:55.935Z,39.99
2016-09-03T01:13:55.939Z,39.79
2016-09-03T01:14:55.968Z,40.09
2016-09-03T01:15:55.991Z,40.28
2016-09-03T01:16:56.015Z,40.19
2016-09-03T01:17:56.042Z,39.89
2016-09-03T01:18:56.071Z,39.79
2016-09-03T01:19:56.092Z,39.99
2016-09-03T01:20:56.119Z,40.09
2016-09-03T01:21:56.143Z,39.99
2016-09-03T01:22:56.170Z,40.09
2016-09-03T01:23:56.198Z,39.89
2016-09-03T01:24:56.240Z,40.09
2016-09-03T01:25:56.248Z,39.99
2016-09-03T01:26:56.277Z,40.37
2016-09-03T01:27:56.298Z,40.57
2016-09-03T01:28:56.330Z,40.37
2016-09-03T01:29:56.350Z,39.99
2016-09-03T01:30:56.375Z,39.99
2016-09-03T01:31:56.504Z,40.19
2016-09-03T01:32:56.426Z,40.28
2016-09-03T01:33:57.157Z,40.09
2016-09-03T01:34:56.478Z,40.09
2016-09-03T01:35:56.506Z,40.28
2016-09-03T01:36:56.528Z,40.19
2016-09-03T01:37:56.568Z,40.19
2016-09-03T01:38:56.580Z,40.19
2016-09-03T01:39:56.608Z,40.09
2016-09-03T01:40:56.633Z,40.09
2016-09-03T01:41:56.657Z,40.19
2016-09-03T01:42:56.684Z,39.99
2016-09-03T01:43:56.719Z,40.47
2016-09-03T01:44:56.731Z,40.95
2016-09-03T01:45:56.758Z,40.57
2016-09-03T01:46:56.793Z,40.66
2016-09-03T01:47:56.811Z,40.66
2016-09-03T01:48:56.836Z,40.47
2016-09-03T01:49:56.861Z,40.66
2016-09-03T01:50:56.888Z,40.57
2016-09-03T01:51:56.913Z,40.66
2016-09-03T01:52:56.940Z,40.57
2016-09-03T01:53:56.966Z,40.37
2016-09-03T01:54:57.005Z,40.66
2016-09-03T01:55:57.013Z,41.03
2016-09-03T01:56:57.040Z,41.03
2016-09-03T01:57:57.065Z,40.95
2016-09-03T01:58:57.090Z,40.86
2016-09-03T01:59:57.116Z,41.03
2016-09-03T02:00:57.146Z,40.94
2016-09-03T02:01:57.171Z,40.84
2016-09-03T02:02:57.196Z,41.14
2016-09-03T02:03:57.218Z,41.05
2016-09-03T02:04:57.244Z,41.13
2016-09-03T02:05:57.267Z,40.86
2016-09-03T02:06:57.292Z,41.05
2016-09-03T02:07:57.320Z,41.03
2016-09-03T02:08:57.347Z,41.14
2016-09-03T02:09:57.368Z,41.34
2016-09-03T02:10:57.397Z,41.13
2016-09-03T02:11:57.419Z,41.24
2016-09-03T02:12:57.457Z,40.95
2016-09-03T02:13:57.474Z,41.34
2016-09-03T02:14:57.496Z,41.34
2016-09-03T02:15:57.522Z,41.24
2016-09-03T02:16:57.546Z,41.24
2016-09-03T02:17:57.569Z,41.32
2016-09-03T02:18:57.599Z,41.05
2016-09-03T02:19:57.622Z,41.13
2016-09-03T02:20:57.648Z,41.14
2016-09-03T02:21:57.682Z,41.32
2016-09-03T02:22:57.709Z,41.32
2016-09-03T02:23:57.725Z,41.22
2016-09-03T02:24:57.749Z,41.22
2016-09-03T02:25:57.782Z,41.22
2016-09-03T02:26:57.804Z,41.32
2016-09-03T02:27:57.826Z,41.13
2016-09-03T02:28:57.852Z,41.13
2016-09-03T02:29:57.876Z,41.13
2016-09-03T02:30:57.904Z,41.03
2016-09-03T02:31:57.927Z,41.13
2016-09-03T02:32:57.957Z,41.22
2016-09-03T02:33:57.993Z,41.61
2016-09-03T02:34:58.003Z,41.13
2016-09-03T02:35:58.027Z,41.41
2016-09-03T02:36:58.759Z,41.13
2016-09-03T02:37:58.077Z,41.41
2016-09-03T02:38:58.122Z,41.22
2016-09-03T02:39:58.130Z,41.61
2016-09-03T02:40:58.152Z,41.71
2016-09-03T02:41:58.179Z,41.89
2016-09-03T02:42:58.211Z,41.32
2016-09-03T02:43:58.231Z,41.99
2016-09-03T02:44:58.256Z,41.71
2016-09-03T02:45:58.278Z,41.51
2016-09-03T02:46:58.310Z,41.8
2016-09-03T02:47:58.332Z,41.71
2016-09-03T02:48:58.354Z,41.71
2016-09-03T02:49:58.388Z,41.51
2016-09-03T02:50:58.458Z,41.51
2016-09-03T02:51:59.135Z,41.51
2016-09-03T02:52:58.464Z,41.99
2016-09-03T02:53:58.484Z,41.8
2016-09-03T02:54:58.514Z,41.51
2016-09-03T02:55:58.540Z,41.8
2016-09-03T02:56:58.564Z,41.89
2016-09-03T02:57:58.583Z,41.8
2016-09-03T02:58:58.615Z,41.99
2016-09-03T02:59:58.631Z,41.89
2016-09-03T03:00:58.671Z,41.8
2016-09-03T03:01:58.685Z,41.89
2016-09-03T03:02:59.418Z,41.8
2016-09-03T03:03:58.734Z,41.8
2016-09-03T03:04:58.762Z,41.89
2016-09-03T03:05:58.789Z,42.19
2016-09-03T03:06:58.807Z,42.09
2016-09-03T03:07:58.834Z,42.09
2016-09-03T03:08:58.861Z,42.19
2016-09-03T03:09:58.893Z,42.19
2016-09-03T03:10:58.910Z,41.89
2016-09-03T03:11:58.935Z,41.89
2016-09-03T03:12:58.961Z,42.28
2016-09-03T03:13:58.986Z,42.38
2016-09-03T03:14:59.013Z,42.28
2016-09-03T03:15:59.037Z,41.8
2016-09-03T03:16:59.063Z,42.28
2016-09-03T03:17:59.094Z,42.28
2016-09-03T03:18:59.111Z,42.28
2016-09-03T03:19:59.139Z,42.28
2016-09-03T03:20:59.163Z,42.28
2016-09-03T03:21:59.189Z,42.28
2016-09-03T03:22:59.215Z,42.28
2016-09-03T03:23:59.240Z,42.28
2016-09-03T03:24:59.263Z,42.19
2016-09-03T03:25:59.288Z,42.28
2016-09-03T03:26:59.315Z,42.28
2016-09-03T03:27:59.356Z,42.28
2016-09-03T03:28:59.364Z,42.19
2016-09-03T03:29:59.441Z,42.19
2016-09-03T03:30:59.420Z,42.28
2016-09-03T03:31:59.438Z,42.16
2016-09-03T03:32:59.466Z,42.19
2016-09-03T03:33:59.490Z,42.19
2016-09-03T03:34:59.514Z,42.16
2016-09-03T03:35:59.541Z,42.07
2016-09-03T03:36:59.565Z,42.19
2016-09-03T03:37:59.588Z,42.09
2016-09-03T03:38:59.616Z,42.19
2016-09-03T03:39:59.641Z,42.07
2016-09-03T03:40:59.668Z,42.38
2016-09-03T03:41:59.690Z,42.57
2016-09-03T03:42:59.718Z,42.36
2016-09-03T03:43:59.742Z,42.47
2016-09-03T03:44:59.768Z,42.47
2016-09-03T03:45:59.789Z,42.38
2016-09-03T03:46:59.832Z,42.28
2016-09-03T03:47:59.840Z,42.46
2016-09-03T03:48:59.869Z,42.46
2016-09-03T03:49:59.892Z,42.46
2016-09-03T03:50:59.917Z,42.46
2016-09-03T03:51:59.941Z,42.46
2016-09-03T03:52:59.970Z,42.46
2016-09-03T03:53:59.995Z,42.36
2016-09-03T03:55:00.020Z,42.65
2016-09-03T03:56:00.049Z,42.55
2016-09-03T03:57:00.069Z,42.55
2016-09-03T03:58:00.142Z,42.46
2016-09-03T03:59:00.116Z,42.55
2016-09-03T04:00:00.140Z,42.55
2016-09-03T04:01:00.169Z,42.74
2016-09-03T04:02:00.193Z,42.84
2016-09-03T04:03:00.220Z,43.13
2016-09-03T04:04:00.951Z,42.26
2016-09-03T04:05:00.269Z,43.03
2016-09-03T04:06:00.297Z,42.26
2016-09-03T04:07:00.327Z,42.93
2016-09-03T04:08:01.056Z,43.13
2016-09-03T04:09:00.369Z,43.03
2016-09-03T04:10:00.394Z,43.03
2016-09-03T04:11:00.416Z,43.03
2016-09-03T04:12:00.448Z,43.23
2016-09-03T04:13:01.181Z,42.26
2016-09-03T04:14:00.499Z,42.93
2016-09-03T04:15:00.520Z,42.93
2016-09-03T04:16:00.547Z,42.74
2016-09-03T04:17:00.566Z,42.93
2016-09-03T04:18:00.594Z,42.84
2016-09-03T04:19:00.619Z,42.84
2016-09-03T04:20:00.643Z,42.84
2016-09-03T04:21:00.665Z,42.84
2016-09-03T04:22:00.689Z,42.93
2016-09-03T04:23:00.725Z,42.84
2016-09-03T04:24:00.744Z,42.93
2016-09-03T04:25:00.764Z,42.84
2016-09-03T04:26:00.794Z,42.65
2016-09-03T04:27:00.816Z,42.74
2016-09-03T04:28:00.848Z,42.74
2016-09-03T04:29:00.863Z,42.74
2016-09-03T04:30:00.900Z,42.74
2016-09-03T04:31:00.917Z,42.74
2016-09-03T04:32:00.942Z,42.74
2016-09-03T04:33:00.968Z,42.74
2016-09-03T04:34:00.998Z,42.74
2016-09-03T04:35:01.017Z,42.74
2016-09-03T04:36:01.043Z,42.84
2016-09-03T04:37:01.062Z,42.74
2016-09-03T04:38:01.090Z,42.74
2016-09-03T04:39:01.115Z,42.74
2016-09-03T04:40:01.138Z,42.74
2016-09-03T04:41:01.171Z,42.74
2016-09-03T04:42:01.197Z,42.74
2016-09-03T04:43:01.217Z,42.55
2016-09-03T04:44:01.240Z,42.65
2016-09-03T04:45:01.262Z,42.74
2016-09-03T04:46:01.290Z,42.84
2016-09-03T04:47:01.314Z,42.84
2016-09-03T04:48:01.340Z,42.84
2016-09-03T04:49:01.363Z,42.93
2016-09-03T04:50:01.398Z,42.93
2016-09-03T04:51:01.411Z,43.23
2016-09-03T04:52:01.439Z,42.74
2016-09-03T04:53:02.175Z,43.13
2016-09-03T04:54:01.487Z,43.41
2016-09-03T04:55:01.514Z,43.32
2016-09-03T04:56:01.543Z,43.23
2016-09-03T04:57:02.287Z,43.41
2016-09-03T04:58:01.587Z,43.03
2016-09-03T04:59:01.611Z,43.41
2016-09-03T05:00:01.659Z,43.13
2016-09-03T05:01:01.661Z,43.51
2016-09-03T05:02:01.683Z,43.41
2016-09-03T05:03:01.715Z,43.32
2016-09-03T05:04:01.742Z,43.32
2016-09-03T05:05:01.761Z,43.23
2016-09-03T05:06:01.784Z,43.51
2016-09-03T05:07:01.811Z,43.61
2016-09-03T05:08:01.841Z,43.51
2016-09-03T05:09:01.861Z,43.51
2016-09-03T05:10:01.883Z,43.51
2016-09-03T05:11:01.912Z,43.51
2016-09-03T05:12:01.932Z,43.51
2016-09-03T05:13:01.966Z,43.51
2016-09-03T05:14:01.985Z,43.03
2016-09-03T05:15:02.010Z,43.71
2016-09-03T05:16:02.031Z,43.51
2016-09-03T05:17:02.058Z,43.61
2016-09-03T05:18:02.082Z,43.32
2016-09-03T05:19:02.109Z,43.23
2016-09-03T05:20:02.131Z,43.51
2016-09-03T05:21:02.169Z,43.51
2016-09-03T05:22:02.182Z,43.32
2016-09-03T05:23:02.220Z,43.41
2016-09-03T05:24:02.230Z,43.8
2016-09-03T05:25:02.257Z,43.13
2016-09-03T05:26:02.281Z,43.23
2016-09-03T05:27:02.312Z,43.9
2016-09-03T05:28:02.334Z,43.03
2016-09-03T05:29:02.357Z,43.41
2016-09-03T05:30:02.383Z,43.68
2016-09-03T05:31:02.403Z,43.61
2016-09-03T05:32:02.450Z,43.51
2016-09-03T05:33:02.453Z,43.41
2016-09-03T05:34:02.477Z,43.32
2016-09-03T05:35:02.506Z,43.23
2016-09-03T05:36:02.539Z,43.23
2016-09-03T05:37:02.553Z,43.23
2016-09-03T05:38:02.597Z,43.32
2016-09-03T05:39:02.655Z,43.13
2016-09-03T05:40:02.642Z,43.51
2016-09-03T05:41:02.653Z,43.03
2016-09-03T05:42:02.676Z,43.32
2016-09-03T05:43:02.704Z,43.32
2016-09-03T05:44:02.727Z,43.51
2016-09-03T05:45:02.751Z,43.32
2016-09-03T05:46:02.782Z,43.32
2016-09-03T05:47:02.802Z,43.51
2016-09-03T05:48:02.840Z,43.23
2016-09-03T05:49:02.851Z,43.32
2016-09-03T05:50:02.875Z,43.41
2016-09-03T05:51:02.900Z,43.51
2016-09-03T05:52:02.937Z,43.23
2016-09-03T05:53:02.961Z,43.23
2016-09-03T05:54:02.983Z,43.32
2016-09-03T05:55:03.001Z,43.23
2016-09-03T05:56:03.026Z,43.23
2016-09-03T05:57:03.051Z,43.61
2016-09-03T05:58:03.077Z,43.51
2016-09-03T05:59:03.110Z,43.23
2016-09-03T06:00:03.145Z,43.61
2016-09-03T06:01:03.147Z,43.71
2016-09-03T06:02:03.194Z,43.32
2016-09-03T06:03:03.197Z,43.71
2016-09-03T06:04:03.219Z,43.61
2016-09-03T06:05:03.249Z,43.71
2016-09-03T06:06:03.279Z,43.61
2016-09-03T06:07:03.297Z,43.51
2016-09-03T06:08:03.336Z,43.51
2016-09-03T06:09:03.345Z,43.51
2016-09-03T06:10:03.374Z,43.71
2016-09-03T06:11:03.395Z,43.71
2016-09-03T06:12:03.417Z,43.51
2016-09-03T06:13:03.448Z,43.51
2016-09-03T06:14:03.480Z,43.51
2016-09-03T06:15:03.492Z,43.51
2016-09-03T06:16:03.519Z,43.61
2016-09-03T06:17:03.540Z,43.61
2016-09-03T06:18:03.567Z,43.32
2016-09-03T06:19:03.593Z,43.8
2016-09-03T06:20:03.619Z,43.61
2016-09-03T06:21:03.641Z,43.41
2016-09-03T06:22:03.668Z,43.61
2016-09-03T06:23:03.691Z,43.63
2016-09-03T06:24:03.717Z,43.92
2016-09-03T06:25:03.740Z,43.73
2016-09-03T06:26:03.767Z,43.54
2016-09-03T06:27:03.790Z,43.44
2016-09-03T06:28:03.829Z,43.54
2016-09-03T06:29:03.841Z,43.54
2016-09-03T06:30:03.866Z,43.63
2016-09-03T06:31:03.894Z,43.54
2016-09-03T06:32:03.916Z,43.73
2016-09-03T06:33:04.050Z,43.44
2016-09-03T06:34:04.059Z,43.44
2016-09-03T06:35:04.092Z,43.82
2016-09-03T06:36:04.101Z,44.02
2016-09-03T06:37:04.101Z,43.54
2016-09-03T06:38:04.169Z,43.73
2016-09-03T06:39:04.177Z,43.54
2016-09-03T06:40:04.186Z,43.54
2016-09-03T06:41:04.186Z,43.34
2016-09-03T06:42:04.310Z,43.54
2016-09-03T06:43:04.202Z,43.54
2016-09-03T06:44:04.214Z,43.24
2016-09-03T06:45:04.338Z,43.24
2016-09-03T06:46:04.337Z,43.92
2016-09-03T06:47:04.368Z,43.34
2016-09-03T06:48:04.377Z,43.27
2016-09-03T06:49:04.390Z,43.63
2016-09-03T06:50:04.394Z,43.27
2016-09-03T06:51:04.390Z,43.55
2016-09-03T06:52:04.449Z,43.17
2016-09-03T06:53:04.443Z,43.07
2016-09-03T06:54:04.462Z,43.27
2016-09-03T06:55:04.489Z,42.97
2016-09-03T06:56:04.515Z,42.88
2016-09-03T06:57:04.546Z,42.59
2016-09-03T06:58:04.563Z,42.79
2016-09-03T06:59:04.588Z,43.07
2016-09-03T07:00:04.612Z,42.59
2016-09-03T07:01:04.642Z,43.07
2016-09-03T07:02:04.662Z,42.79
2016-09-03T07:03:04.693Z,42.79
2016-09-03T07:04:04.724Z,42.88
2016-09-03T07:05:04.736Z,42.97
2016-09-03T07:06:04.764Z,42.71
2016-09-03T07:07:04.787Z,42.52
2016-09-03T07:08:04.816Z,42.61
2016-09-03T07:09:04.835Z,42.61
2016-09-03T07:10:04.863Z,42.71
2016-09-03T07:11:04.887Z,42.61
2016-09-03T07:12:04.912Z,42.61
2016-09-03T07:13:04.940Z,42.61
2016-09-03T07:14:04.964Z,42.61
2016-09-03T07:15:04.993Z,42.52
2016-09-03T07:16:05.019Z,42.52
2016-09-03T07:17:05.043Z,42.32
2016-09-03T07:18:05.064Z,42.23
2016-09-03T07:19:05.087Z,42.42
2016-09-03T07:20:05.115Z,42.42
2016-09-03T07:21:05.146Z,42.23
2016-09-03T07:22:05.164Z,42.15
2016-09-03T07:23:05.192Z,42.05
2016-09-03T07:24:05.214Z,42.15
2016-09-03T07:25:05.238Z,42.25
2016-09-03T07:26:05.266Z,41.96
2016-09-03T07:27:05.321Z,42.05
2016-09-03T07:28:05.321Z,41.96
2016-09-03T07:29:05.340Z,41.86
2016-09-03T07:30:05.367Z,41.57
2016-09-03T07:31:05.392Z,41.19
2016-09-03T07:32:05.419Z,41.19
2016-09-03T07:33:05.444Z,41.3
2016-09-03T07:34:05.470Z,41.3
2016-09-03T07:35:05.498Z,41.3
2016-09-03T07:36:05.522Z,41.2
2016-09-03T07:37:05.598Z,41.4
2016-09-03T07:38:05.569Z,41.4
2016-09-03T07:39:05.601Z,41.3
2016-09-03T07:40:05.621Z,41.3
2016-09-03T07:41:05.651Z,41.2
2016-09-03T07:42:05.671Z,41.11
2016-09-03T07:43:05.696Z,41.2
2016-09-03T07:44:05.721Z,41.02
2016-09-03T07:45:05.746Z,41.03
2016-09-03T07:46:05.772Z,40.63
2016-09-03T07:47:05.802Z,40.55
2016-09-03T07:48:05.824Z,40.36
2016-09-03T07:49:05.851Z,40.26
2016-09-03T07:50:05.875Z,40.07
2016-09-03T07:51:05.906Z,40.26
2016-09-03T07:52:05.925Z,40.17
2016-09-03T07:53:05.950Z,40.17
2016-09-03T07:54:05.975Z,40.07
2016-09-03T07:55:06.113Z,40.07
2016-09-03T07:56:06.029Z,40.19
2016-09-03T07:57:06.056Z,40.19
2016-09-03T07:58:06.081Z,40.28
2016-09-03T07:59:06.322Z,40.19
2016-09-03T08:00:06.133Z,40.47
2016-09-03T08:01:06.157Z,40.19
2016-09-03T08:02:06.182Z,40.09
2016-09-03T08:03:06.262Z,39.72
2016-09-03T08:04:06.235Z,39.92
2016-09-03T08:05:06.262Z,40.01
2016-09-03T08:06:06.288Z,39.9
2016-09-03T08:07:06.360Z,39.92
2016-09-03T08:08:06.339Z,39.82
2016-09-03T08:09:06.362Z,39.62
2016-09-03T08:10:06.483Z,39.62
2016-09-03T08:11:06.416Z,39.53
2016-09-03T08:12:06.443Z,39.55
2016-09-03T08:13:06.468Z,39.36
2016-09-03T08:14:06.501Z,39.55
2016-09-03T08:15:06.518Z,39.26
2016-09-03T08:16:06.546Z,38.87
2016-09-03T08:17:06.579Z,39.06
2016-09-03T08:18:06.597Z,38.97
2016-09-03T08:19:06.638Z,38.97
2016-09-03T08:20:06.652Z,38.99
2016-09-03T08:21:06.676Z,38.68
2016-09-03T08:22:06.703Z,38.89
2016-09-03T08:23:06.730Z,38.89
2016-09-03T08:24:06.758Z,38.7
2016-09-03T08:25:06.795Z,38.41
2016-09-03T08:26:06.808Z,38.7
2016-09-03T08:27:06.837Z,38.5
2016-09-03T08:28:06.866Z,38.12
2016-09-03T08:29:06.886Z,38.02
2016-09-03T08:30:06.916Z,38.02
2016-09-03T08:31:06.941Z,38.12
2016-09-03T08:32:07.046Z,37.63
2016-09-03T08:33:06.993Z,37.94
2016-09-03T08:34:07.019Z,37.44
2016-09-03T08:35:07.049Z,37.17
2016-09-03T08:36:07.071Z,36.68
2016-09-03T08:37:07.098Z,37.07
2016-09-03T08:38:07.138Z,37.07
2016-09-03T08:39:07.299Z,36.88
2016-09-03T08:40:07.187Z,36.78
2016-09-03T08:41:07.206Z,36.78
2016-09-03T08:42:07.234Z,36.3
2016-09-03T08:43:07.260Z,36.49
2016-09-03T08:44:07.296Z,36.8
2016-09-03T08:45:08.018Z,36.7
2016-09-03T08:46:07.342Z,36.22
2016-09-03T08:47:07.373Z,36.22
2016-09-03T08:48:07.395Z,36.02
2016-09-03T08:49:07.427Z,35.64
2016-09-03T08:50:07.448Z,35.73
2016-09-03T08:51:07.484Z,35.83
2016-09-03T08:52:07.502Z,35.75
2016-09-03T08:53:07.537Z,36.14
2016-09-03T08:54:07.558Z,35.46
2016-09-03T08:55:07.635Z,35.66
2016-09-03T08:56:07.612Z,35.66
2016-09-03T08:57:07.639Z,35.46
2016-09-03T08:58:07.662Z,35.27
2016-09-03T08:59:07.690Z,35.28
2016-09-03T09:00:07.720Z,35.09
2016-09-03T09:01:07.750Z,34.89
2016-09-03T09:02:07.783Z,34.7
2016-09-03T09:03:07.815Z,34.51
2016-09-03T09:04:07.829Z,33.83
2016-09-03T09:05:07.862Z,34.22
2016-09-03T09:06:07.880Z,33.83
2016-09-03T09:07:07.914Z,33.54
2016-09-03T09:08:07.948Z,33.44
2016-09-03T09:09:07.968Z,33.25
2016-09-03T09:10:07.990Z,33.54
2016-09-03T09:11:08.020Z,33.06
2016-09-03T09:12:08.047Z,33.36
2016-09-03T09:13:08.080Z,33.46
2016-09-03T09:14:08.108Z,33.06
2016-09-03T09:15:08.129Z,32.97
2016-09-03T09:16:08.156Z,33.17
2016-09-03T09:17:08.181Z,32.97
2016-09-03T09:18:08.309Z,32.97
2016-09-03T09:19:08.280Z,33.07
2016-09-03T09:20:08.265Z,32.87
2016-09-03T09:21:08.297Z,32.5
2016-09-03T09:22:08.327Z,32.5
2016-09-03T09:23:08.348Z,32.6
2016-09-03T09:24:08.375Z,32.79
2016-09-03T09:25:08.403Z,32.5
2016-09-03T09:26:08.430Z,32.31
2016-09-03T09:27:08.461Z,32.21
2016-09-03T09:28:08.488Z,31.82
2016-09-03T09:29:08.530Z,32.23
2016-09-03T09:30:08.552Z,32.23
2016-09-03T09:31:08.572Z,32.23
2016-09-03T09:32:08.597Z,32.23
2016-09-03T09:33:08.629Z,31.94
2016-09-03T09:34:08.653Z,32.13
2016-09-03T09:35:09.387Z,31.37
2016-09-03T09:36:08.710Z,31.55
2016-09-03T09:37:08.737Z,31.57
2016-09-03T09:38:08.767Z,31.08
2016-09-03T09:39:09.509Z,31.57
2016-09-03T09:40:08.823Z,30.98
2016-09-03T09:41:08.851Z,30.88
2016-09-03T09:42:08.885Z,30.69
2016-09-03T09:43:08.961Z,30.59
2016-09-03T09:44:08.936Z,30.69
2016-09-03T09:45:08.961Z,30.69
2016-09-03T09:46:08.993Z,30.69
2016-09-03T09:47:09.022Z,30.4
2016-09-03T09:48:09.060Z,30.51
2016-09-03T09:49:09.076Z,30.51
2016-09-03T09:50:09.106Z,30.51
2016-09-03T09:51:09.132Z,30.22
2016-09-03T09:52:09.355Z,30.51
2016-09-03T09:53:09.192Z,30.41
2016-09-03T09:54:09.219Z,29.93
2016-09-03T09:55:09.256Z,29.75
2016-09-03T09:56:09.273Z,29.65
2016-09-03T09:57:09.312Z,29.46
2016-09-03T09:58:09.332Z,29.26
2016-09-03T09:59:09.371Z,29.36
2016-09-03T10:00:09.392Z,28.89
2016-09-03T10:01:09.419Z,29.18
2016-09-03T10:02:09.449Z,28.79
2016-09-03T10:03:09.492Z,28.5
2016-09-03T10:04:09.508Z,28.89
2016-09-03T10:05:09.532Z,28.89
2016-09-03T10:06:09.563Z,28.89
2016-09-03T10:07:09.598Z,28.59
2016-09-03T10:08:09.672Z,28.9
2016-09-03T10:09:09.649Z,29
2016-09-03T10:10:09.679Z,28.61
2016-09-03T10:11:09.707Z,28.51
2016-09-03T10:12:09.738Z,28.03
2016-09-03T10:13:10.471Z,28.22
2016-09-03T10:14:09.792Z,27.93
2016-09-03T10:15:09.874Z,28.14
2016-09-03T10:16:09.853Z,28.14
2016-09-03T10:17:09.885Z,27.75
2016-09-03T10:18:09.913Z,27.84
2016-09-03T10:19:09.940Z,27.55
2016-09-03T10:20:09.970Z,27.45
2016-09-03T10:21:10.009Z,27.65
2016-09-03T10:22:10.241Z,27.55
2016-09-03T10:23:10.061Z,27.28
2016-09-03T10:24:10.085Z,27.37
2016-09-03T10:25:10.118Z,27.66
2016-09-03T10:26:10.153Z,27.37
2016-09-03T10:27:10.176Z,26.79
2016-09-03T10:28:10.204Z,27.37
2016-09-03T10:29:10.236Z,26.79
2016-09-03T10:30:10.340Z,27.37
2016-09-03T10:31:10.297Z,26.89
2016-09-03T10:32:10.323Z,26.69
2016-09-03T10:33:10.357Z,26.69
2016-09-03T10:34:10.388Z,26.5
2016-09-03T10:35:10.412Z,26.61
2016-09-03T10:36:10.444Z,26.41
2016-09-03T10:37:10.471Z,26.51
2016-09-03T10:38:10.500Z,26.61
2016-09-03T10:39:10.581Z,26.21
2016-09-03T10:40:10.560Z,26.12
2016-09-03T10:41:10.592Z,26.41
2016-09-03T10:42:10.623Z,26.41
2016-09-03T10:43:10.652Z,26.12
2016-09-03T10:44:10.681Z,26.12
2016-09-03T10:45:10.713Z,25.92
2016-09-03T10:46:10.740Z,25.93
2016-09-03T10:47:10.778Z,25.53
2016-09-03T10:48:10.815Z,25.63
2016-09-03T10:49:10.830Z,25.35
2016-09-03T10:50:10.862Z,25.15
2016-09-03T10:51:10.892Z,25.25
2016-09-03T10:52:10.922Z,24.96
2016-09-03T10:53:10.958Z,24.87
2016-09-03T10:54:10.982Z,24.67
2016-09-03T10:55:11.013Z,24.48
2016-09-03T10:56:11.042Z,24.08
2016-09-03T10:57:11.072Z,24.19
2016-09-03T10:58:11.110Z,23.51
2016-09-03T10:59:11.133Z,23.61
2016-09-03T11:00:11.163Z,23.51
2016-09-03T11:01:11.200Z,23.41
2016-09-03T11:02:11.221Z,23.8
2016-09-03T11:03:11.256Z,23.51
2016-09-03T11:04:11.285Z,23.51
2016-09-03T11:05:11.321Z,23.32
2016-09-03T11:06:11.346Z,22.92
2016-09-03T11:07:11.375Z,23.22
2016-09-03T11:08:11.406Z,22.94
2016-09-03T11:09:11.436Z,22.94
2016-09-03T11:10:11.471Z,23.03
2016-09-03T11:11:11.504Z,22.55
2016-09-03T11:12:11.582Z,22.55
2016-09-03T11:13:11.563Z,22.64
2016-09-03T11:14:11.640Z,22.25
2016-09-03T11:15:11.622Z,22.35
2016-09-03T11:16:11.653Z,22.07
2016-09-03T11:17:11.682Z,21.58
2016-09-03T11:18:11.716Z,21.97
2016-09-03T11:19:11.747Z,21.39
2016-09-03T11:20:11.774Z,21.58
2016-09-03T11:21:11.814Z,21.48
2016-09-03T11:22:11.839Z,21.39
2016-09-03T11:23:11.868Z,21.39
2016-09-03T11:24:11.898Z,21.59
2016-09-03T11:25:11.929Z,21.1
2016-09-03T11:26:11.967Z,21.3
2016-09-03T11:27:11.991Z,21.2
2016-09-03T11:28:12.021Z,21.1
2016-09-03T11:29:12.055Z,21.1
2016-09-03T11:30:12.086Z,20.71
2016-09-03T11:31:12.117Z,21.1
2016-09-03T11:32:12.144Z,20.71
2016-09-03T11:33:12.178Z,20.51
2016-09-03T11:34:12.209Z,20.53
2016-09-03T11:35:12.242Z,20.22
2016-09-03T11:36:12.272Z,20.43
2016-09-03T11:37:12.306Z,20.43
2016-09-03T11:38:12.338Z,20.82
2016-09-03T11:39:12.363Z,20.82
2016-09-03T11:40:12.395Z,21.11
2016-09-03T11:41:12.440Z,20.62
2016-09-03T11:42:12.459Z,21.01
2016-09-03T11:43:12.493Z,20.82
2016-09-03T11:44:12.523Z,20.83
2016-09-03T11:45:12.551Z,20.73
2016-09-03T11:46:12.584Z,20.73
2016-09-03T11:47:12.619Z,20.73
2016-09-03T11:48:12.651Z,20.73
2016-09-03T11:49:12.680Z,21.03
2016-09-03T11:50:12.712Z,21.03
2016-09-03T11:51:12.744Z,20.53
2016-09-03T11:52:12.777Z,20.25
2016-09-03T11:53:12.806Z,20.25
2016-09-03T11:54:12.838Z,20.54
2016-09-03T11:55:12.872Z,20.54
2016-09-03T11:56:12.903Z,20.25
2016-09-03T11:57:12.937Z,20.25
2016-09-03T11:58:12.963Z,19.86
2016-09-03T11:59:13.000Z,20.15
2016-09-03T12:00:13.026Z,20.06
2016-09-03T12:01:13.059Z,20.45
2016-09-03T12:02:13.092Z,19.96
2016-09-03T12:03:13.124Z,19.48
2016-09-03T12:04:13.158Z,19.57
2016-09-03T12:05:13.187Z,19.67
2016-09-03T12:06:13.221Z,19.57
2016-09-03T12:07:13.253Z,19.57
2016-09-03T12:08:13.284Z,19.78
2016-09-03T12:09:13.316Z,19.96
2016-09-03T12:10:13.348Z,19.78
2016-09-03T12:11:13.379Z,19.68
2016-09-03T12:12:13.415Z,19.68
2016-09-03T12:13:13.445Z,19.39
2016-09-03T12:14:13.479Z,19.2
2016-09-03T12:15:13.509Z,19.29
2016-09-03T12:16:13.540Z,19.2
2016-09-03T12:17:13.576Z,19.29
2016-09-03T12:18:13.618Z,19.2
2016-09-03T12:19:13.640Z,19.1
2016-09-03T12:20:13.673Z,19.29
2016-09-03T12:21:13.712Z,19.2
2016-09-03T12:22:13.736Z,19.1
2016-09-03T12:23:13.776Z,19.39
2016-09-03T12:24:13.798Z,19
2016-09-03T12:25:14.547Z,18.9
2016-09-03T12:26:13.864Z,19.1
2016-09-03T12:27:13.906Z,19.2
2016-09-03T12:28:13.930Z,19.39
2016-09-03T12:29:13.966Z,19.29
2016-09-03T12:30:13.997Z,19.29
2016-09-03T12:31:14.033Z,19.39
2016-09-03T12:32:14.075Z,19.39
2016-09-03T12:33:14.100Z,19.39
2016-09-03T12:34:14.127Z,19.29
2016-09-03T12:35:14.161Z,19.2
2016-09-03T12:36:14.191Z,19.1
2016-09-03T12:37:14.225Z,19
2016-09-03T12:38:14.256Z,19
2016-09-03T12:39:14.296Z,19.1
2016-09-03T12:40:14.325Z,18.89
2016-09-03T12:41:15.067Z,19.29
2016-09-03T12:42:14.386Z,19.48
2016-09-03T12:43:14.420Z,19.18
2016-09-03T12:44:14.454Z,18.99
2016-09-03T12:45:14.487Z,19
2016-09-03T12:46:14.519Z,19.09
2016-09-03T12:47:14.550Z,19
2016-09-03T12:48:14.590Z,18.8
2016-09-03T12:49:14.616Z,19
2016-09-03T12:50:14.649Z,19
2016-09-03T12:51:14.681Z,19.1
2016-09-03T12:52:14.714Z,19.29
2016-09-03T12:53:14.746Z,19
2016-09-03T12:54:14.781Z,19
2016-09-03T12:55:14.819Z,19
2016-09-03T12:56:14.844Z,19